Time;durP1;ratioP1;P1;durP2;ratioP2;P2;SDS_P1;SDS_P2;PMS_P1;PMS_P2;Temp;Humidity;BMP_temperature;BMP_pressure;BME280_temperature;BME280_humidity;BME280_pressure;Samples;Min_cycle;Max_cycle;Signal;HPM_P1;HPM_P2
2022/03/30 00:02:18;;;;;;;9.77;4.53;;;;;;;19.09;43.88;101024.16;5041236;28;20033;-50
2022/03/30 00:04:45;;;;;;;7.72;4.70;;;;;;;19.08;44.08;101021.66;5046096;28;20072;-50
2022/03/30 00:07:11;;;;;;;7.53;4.72;;;;;;;19.05;44.38;101027.31;5045280;28;20071;-51
2022/03/30 00:09:38;;;;;;;8.23;4.43;;;;;;;19.05;44.05;101017.41;5042056;28;20155;-50
2022/03/30 00:12:04;;;;;;;8.77;5.28;;;;;;;19.05;44.22;101016.59;5043441;28;20328;-48
2022/03/30 00:14:31;;;;;;;8.85;4.55;;;;;;;19.03;44.32;101011.38;5039579;28;20513;-50
2022/03/30 00:16:57;;;;;;;10.23;4.75;;;;;;;19.02;44.32;101017.75;5040769;28;20332;-50
2022/03/30 00:19:24;;;;;;;6.72;4.43;;;;;;;19.01;44.30;101013.34;5043592;28;20418;-51
2022/03/30 00:21:51;;;;;;;7.32;4.50;;;;;;;19.00;44.18;101009.00;5047068;28;20128;-51
2022/03/30 00:24:18;;;;;;;10.32;4.65;;;;;;;18.99;44.61;101013.53;5043321;28;20329;-51
2022/03/30 00:26:44;;;;;;;7.53;4.65;;;;;;;18.98;44.08;101008.31;5039448;28;20432;-50
2022/03/30 00:29:11;;;;;;;11.15;5.00;;;;;;;18.97;44.23;101015.53;5036904;28;20053;-51
2022/03/30 00:31:37;;;;;;;7.10;4.43;;;;;;;18.96;44.26;101013.84;5045343;28;20048;-50
2022/03/30 00:34:04;;;;;;;12.82;5.35;;;;;;;18.95;44.47;101012.16;5042617;28;20056;-52
2022/03/30 00:36:30;;;;;;;6.28;4.32;;;;;;;18.95;44.53;101011.31;5044056;28;20298;-52
2022/03/30 00:38:57;;;;;;;8.00;4.57;;;;;;;18.94;44.16;101006.94;5043242;28;20071;-51
2022/03/30 00:41:27;;;;;;;7.82;4.78;;;;;;;18.93;44.61;101013.28;5046131;28;20051;-52
2022/03/30 00:43:53;;;;;;;7.32;4.43;;;;;;;18.92;44.64;101011.63;5043963;28;20082;-51
2022/03/30 00:46:20;;;;;;;7.88;4.15;;;;;;;18.92;44.51;101008.94;5043154;28;20148;-51
2022/03/30 00:48:46;;;;;;;6.43;3.88;;;;;;;18.91;44.31;101004.56;5043672;28;20040;-52
2022/03/30 00:51:13;;;;;;;7.68;5.05;;;;;;;18.89;44.33;101010.06;5045468;28;20045;-50
2022/03/30 00:53:40;;;;;;;8.00;4.63;;;;;;;18.87;44.70;100998.66;5044167;28;20158;-49
2022/03/30 00:56:06;;;;;;;8.30;4.82;;;;;;;18.89;44.69;100999.31;5045262;28;20040;-50
2022/03/30 00:58:34;;;;;;;9.00;4.13;;;;;;;18.87;44.40;101001.34;5046451;28;20407;-52
2022/03/30 01:01:01;;;;;;;7.82;4.18;;;;;;;18.86;44.60;101001.50;5043110;28;20054;-51
2022/03/30 01:03:28;;;;;;;7.28;4.50;;;;;;;18.85;44.58;100992.59;5041840;28;20049;-52
2022/03/30 01:05:54;;;;;;;6.85;4.20;;;;;;;18.86;44.58;100996.13;5041785;28;20413;-51
2022/03/30 01:08:21;;;;;;;7.25;4.53;;;;;;;18.84;45.00;100995.44;5045529;28;20052;-52
2022/03/30 01:10:48;;;;;;;9.05;4.75;;;;;;;18.83;44.31;100996.44;5041631;28;20341;-51
2022/03/30 01:13:15;;;;;;;10.10;4.78;;;;;;;18.81;44.53;100987.69;5041185;28;20041;-51
2022/03/30 01:15:43;;;;;;;6.72;4.60;;;;;;;18.81;44.53;100988.53;5043257;28;20049;-49
2022/03/30 01:18:09;;;;;;;8.02;4.25;;;;;;;18.81;44.58;100983.16;5042117;28;20059;-51
2022/03/30 01:20:37;;;;;;;9.45;4.47;;;;;;;18.80;44.66;100980.63;5043691;28;20052;-52
2022/03/30 01:23:04;;;;;;;7.95;4.07;;;;;;;18.79;44.94;100978.94;5043698;28;20037;-49
2022/03/30 01:25:31;;;;;;;6.63;4.50;;;;;;;18.78;44.69;100978.13;5039664;28;20407;-52
2022/03/30 01:27:58;;;;;;;7.43;3.90;;;;;;;18.77;44.53;100970.19;5041248;28;20356;-49
2022/03/30 01:33:10;;;;;;;7.07;4.03;;;;;;;18.77;45.07;100967.50;5040113;28;20041;-52
2022/03/30 01:35:37;;;;;;;6.88;4.25;;;;;;;18.74;44.65;100964.16;5040582;28;20063;-53
2022/03/30 01:38:04;;;;;;;6.53;3.55;;;;;;;18.73;44.88;100966.97;5042657;28;21457;-49
2022/03/30 01:40:31;;;;;;;7.05;4.03;;;;;;;18.71;44.88;100959.09;5042506;28;20103;-50
2022/03/30 01:42:57;;;;;;;7.22;3.83;;;;;;;18.72;44.90;100949.19;5042351;28;20080;-52
2022/03/30 01:45:24;;;;;;;6.53;4.13;;;;;;;18.71;44.94;100953.72;5042134;28;20049;-49
2022/03/30 01:47:59;;;;;;;6.85;4.03;;;;;;;18.67;44.92;100955.00;5042665;28;20529;-52
2022/03/30 01:50:28;;;;;;;9.25;4.40;;;;;;;18.69;44.91;100946.78;5039745;28;20041;-53
2022/03/30 01:52:55;;;;;;;8.93;4.53;;;;;;;18.68;44.76;100950.47;5038719;28;20446;-51
2022/03/30 01:55:22;;;;;;;6.47;4.10;;;;;;;18.66;45.04;100945.25;5041500;28;20131;-52
2022/03/30 01:57:48;;;;;;;9.88;4.40;;;;;;;18.65;44.74;100942.72;5038235;28;23031;-51
2022/03/30 02:00:17;;;;;;;8.27;4.10;;;;;;;18.62;44.63;100941.19;5040636;28;20049;-51
2022/03/30 02:02:44;;;;;;;8.63;4.65;;;;;;;18.62;45.14;100935.00;5043716;28;20481;-51
2022/03/30 02:05:11;;;;;;;7.85;4.68;;;;;;;18.62;44.89;100933.16;5039797;28;20467;-50
2022/03/30 02:07:39;;;;;;;8.77;4.00;;;;;;;18.59;45.00;100935.28;5042838;28;20147;-51
2022/03/30 02:10:07;;;;;;;7.80;3.92;;;;;;;18.59;44.78;100932.59;5043919;28;20168;-47
2022/03/30 02:12:34;;;;;;;8.57;4.10;;;;;;;18.57;45.08;100931.91;5044131;28;20044;-51
2022/03/30 02:15:01;;;;;;;8.93;4.45;;;;;;;18.56;45.38;100931.06;5046137;28;20131;-50
2022/03/30 02:17:27;;;;;;;7.35;3.70;;;;;;;18.54;45.22;100927.72;5047248;28;20055;-52
2022/03/30 02:19:55;;;;;;;8.27;3.83;;;;;;;18.54;45.40;100933.06;5041297;28;20148;-48
2022/03/30 02:22:22;;;;;;;6.13;4.20;;;;;;;18.54;45.14;100924.19;5044473;28;20099;-51
2022/03/30 02:24:50;;;;;;;8.68;4.38;;;;;;;18.52;45.51;100918.97;5038142;28;20049;-50
2022/03/30 02:27:19;;;;;;;10.43;4.03;;;;;;;18.52;45.52;100920.81;5046920;28;20041;-50
2022/03/30 02:29:47;;;;;;;10.38;4.78;;;;;;;18.50;45.50;100912.91;5045088;28;20439;-51
2022/03/30 02:32:16;;;;;;;7.25;4.10;;;;;;;18.49;45.08;100911.19;5042146;28;20056;-50
2022/03/30 02:34:43;;;;;;;8.32;4.25;;;;;;;18.48;45.17;100913.06;5041062;28;20051;-51
2022/03/30 02:37:11;;;;;;;8.27;4.32;;;;;;;18.48;45.46;100909.53;5041956;28;20183;-48
2022/03/30 02:39:38;;;;;;;10.07;4.07;;;;;;;18.47;44.80;100906.00;5036287;28;20068;-50
2022/03/30 02:42:07;;;;;;;9.35;4.55;;;;;;;18.45;45.21;100894.59;5042028;28;20040;-49
2022/03/30 02:44:35;;;;;;;6.60;4.18;;;;;;;18.45;45.15;100901.78;5042461;28;20095;-51
2022/03/30 02:47:02;;;;;;;6.32;3.75;;;;;;;18.44;45.52;100900.09;5036425;28;20044;-52
2022/03/30 02:49:28;;;;;;;8.45;4.00;;;;;;;18.45;45.13;100893.72;5031216;28;20447;-52
2022/03/30 02:51:55;;;;;;;6.65;3.80;;;;;;;18.44;45.60;100900.94;5032484;28;20084;-52
2022/03/30 02:54:21;;;;;;;7.40;3.85;;;;;;;18.41;45.36;100886.97;5033723;28;20257;-51
2022/03/30 02:56:48;;;;;;;7.53;3.75;;;;;;;18.41;45.29;100884.31;5029902;28;20045;-51
2022/03/30 02:59:14;;;;;;;9.90;4.20;;;;;;;18.41;45.35;100881.63;5031515;28;20049;-52
2022/03/30 03:01:41;;;;;;;8.02;4.18;;;;;;;18.40;45.27;100878.09;5033458;28;20040;-51
2022/03/30 03:04:08;;;;;;;7.35;4.40;;;;;;;18.39;45.38;100875.56;5035390;28;20436;-52
2022/03/30 03:06:34;;;;;;;7.53;4.03;;;;;;;18.38;45.17;100868.53;5039194;28;20087;-51
2022/03/30 03:09:01;;;;;;;6.50;4.20;;;;;;;18.37;45.32;100867.69;5030906;28;20160;-52
2022/03/30 03:11:27;;;;;;;7.57;3.60;;;;;;;18.36;45.33;100862.47;5032162;28;20657;-51
2022/03/30 03:13:54;;;;;;;7.57;4.05;;;;;;;18.35;45.24;100864.31;5032529;28;20041;-51
2022/03/30 03:16:20;;;;;;;7.72;4.68;;;;;;;18.35;45.44;100869.69;5036357;28;20053;-51
2022/03/30 03:18:47;;;;;;;9.13;4.50;;;;;;;18.33;45.69;100865.44;5031394;28;20144;-53
2022/03/30 03:21:14;;;;;;;8.68;3.80;;;;;;;18.32;45.49;100875.34;5034698;28;20072;-53
2022/03/30 03:23:41;;;;;;;7.97;3.85;;;;;;;18.32;45.62;100869.13;5032925;28;20412;-50
2022/03/30 03:26:08;;;;;;;12.57;4.53;;;;;;;18.32;45.31;100861.94;5036873;28;20041;-50
2022/03/30 03:28:34;;;;;;;7.05;3.80;;;;;;;18.32;45.28;100858.41;5033993;28;20053;-51
2022/03/30 03:31:01;;;;;;;7.72;3.90;;;;;;;18.30;45.81;100858.56;5036020;28;20049;-51
2022/03/30 03:33:28;;;;;;;7.95;4.25;;;;;;;18.31;45.04;100854.03;5032552;28;20425;-51
2022/03/30 03:35:55;;;;;;;8.88;4.00;;;;;;;18.31;45.37;100846.00;5035905;28;20147;-49
2022/03/30 03:38:22;;;;;;;6.88;3.90;;;;;;;18.29;45.74;100847.97;5036050;28;20061;-52
2022/03/30 03:40:48;;;;;;;10.77;3.67;;;;;;;18.28;45.56;100846.28;5033076;28;20341;-52
2022/03/30 03:43:15;;;;;;;6.25;3.58;;;;;;;18.28;45.53;100847.13;5041315;28;20057;-50
2022/03/30 03:45:41;;;;;;;5.72;3.30;;;;;;;18.29;45.79;100843.47;5040460;28;20083;-50
2022/03/30 03:48:08;;;;;;;6.28;3.40;;;;;;;18.36;45.51;100844.53;5042651;28;20063;-51
2022/03/30 03:50:35;;;;;;;7.07;4.43;;;;;;;18.43;45.19;100844.75;5044142;28;20053;-51
2022/03/30 03:53:01;;;;;;;7.25;3.58;;;;;;;18.50;45.30;100840.44;5043725;28;20229;-49
2022/03/30 03:55:28;;;;;;;7.20;3.90;;;;;;;18.59;45.34;100844.03;5039714;28;20045;-49
2022/03/30 03:57:55;;;;;;;8.40;4.00;;;;;;;18.67;45.24;100846.75;5043920;28;20178;-50
2022/03/30 04:00:21;;;;;;;8.80;4.22;;;;;;;18.74;45.46;100840.63;5045685;28;20067;-51
2022/03/30 04:02:48;;;;;;;5.78;3.30;;;;;;;18.82;45.57;100847.06;5046176;28;20554;-51
2022/03/30 04:05:14;;;;;;;7.05;3.38;;;;;;;18.89;45.27;100848.94;5039697;28;20044;-51
2022/03/30 04:07:41;;;;;;;9.40;4.32;;;;;;;18.97;45.77;100837.38;5046204;28;20098;-51
2022/03/30 04:10:09;;;;;;;11.45;4.63;;;;;;;19.05;45.50;100842.81;5045054;28;20045;-51
2022/03/30 04:12:38;;;;;;;10.27;3.47;;;;;;;19.12;44.97;100845.69;5048545;28;20103;-51
2022/03/30 04:15:05;;;;;;;8.07;4.75;;;;;;;19.18;44.95;100839.69;5051055;28;20037;-51
2022/03/30 04:17:32;;;;;;;8.55;3.90;;;;;;;19.23;44.51;100845.44;5046514;28;20084;-50
2022/03/30 04:20:00;;;;;;;7.63;3.92;;;;;;;19.28;45.19;100837.72;5043662;28;20389;-51
2022/03/30 04:22:26;;;;;;;11.27;4.10;;;;;;;19.31;44.50;100840.09;5040156;28;20132;-49
2022/03/30 04:24:53;;;;;;;6.43;3.97;;;;;;;19.33;44.77;100831.84;5043934;28;20048;-48
2022/03/30 04:27:20;;;;;;;9.32;4.40;;;;;;;19.34;44.02;100837.06;5043502;28;20053;-50
2022/03/30 04:29:46;;;;;;;9.68;4.40;;;;;;;19.36;44.43;100839.59;5047176;28;20075;-50
2022/03/30 04:32:13;;;;;;;12.48;4.70;;;;;;;19.36;44.55;100843.13;5048516;28;20094;-50
2022/03/30 04:34:39;;;;;;;9.68;4.72;;;;;;;19.35;44.34;100843.28;5049934;28;20049;-51
2022/03/30 04:37:06;;;;;;;10.80;4.55;;;;;;;19.34;43.94;100838.94;5048625;28;20067;-52
2022/03/30 04:39:33;;;;;;;8.90;4.22;;;;;;;19.32;43.89;100840.91;5047847;28;20684;-51
2022/03/30 04:42:00;;;;;;;10.25;4.45;;;;;;;19.30;43.88;100837.56;5047767;28;20041;-51
2022/03/30 04:44:27;;;;;;;9.20;4.68;;;;;;;19.28;43.90;100834.19;5048222;28;20060;-50
2022/03/30 04:46:54;;;;;;;11.35;4.22;;;;;;;19.23;43.47;100827.44;5045445;28;20049;-52
2022/03/30 04:49:21;;;;;;;9.18;4.95;;;;;;;19.20;43.54;100827.75;5043562;28;20132;-50
2022/03/30 04:51:48;;;;;;;7.75;4.10;;;;;;;19.17;43.60;100824.56;5045654;28;20328;-51
2022/03/30 04:54:16;;;;;;;9.50;4.53;;;;;;;19.14;43.52;100816.84;5039081;28;20050;-49
2022/03/30 04:56:43;;;;;;;10.25;4.85;;;;;;;19.11;44.09;100811.78;5045826;28;20051;-47
2022/03/30 04:59:10;;;;;;;8.20;4.00;;;;;;;19.09;43.81;100817.31;5048151;28;20524;-51
2022/03/30 05:01:37;;;;;;;9.00;4.63;;;;;;;19.05;43.66;100813.25;5046205;28;20053;-52
2022/03/30 05:04:06;;;;;;;9.57;4.43;;;;;;;19.03;43.80;100823.34;5048368;28;20048;-51
2022/03/30 05:06:33;;;;;;;6.97;4.15;;;;;;;19.01;43.81;100819.94;5048045;28;20079;-48
2022/03/30 05:08:59;;;;;;;8.50;4.70;;;;;;;18.97;44.10;100815.91;5042556;28;20098;-49
2022/03/30 05:11:26;;;;;;;9.10;5.03;;;;;;;18.94;44.17;100817.09;5046704;28;20727;-48
2022/03/30 05:13:53;;;;;;;13.73;4.78;;;;;;;18.88;43.76;100811.50;5043816;28;20410;-49
2022/03/30 05:16:19;;;;;;;9.57;4.22;;;;;;;18.83;44.27;100805.78;5043615;28;20056;-48
2022/03/30 05:18:46;;;;;;;8.10;4.70;;;;;;;18.80;44.51;100808.78;5047320;28;20128;-48
2022/03/30 05:21:12;;;;;;;8.90;4.53;;;;;;;18.76;44.14;100815.47;5047655;28;20132;-48
2022/03/30 05:23:39;;;;;;;6.55;4.20;;;;;;;18.73;44.36;100813.94;5048973;28;20055;-49
2022/03/30 05:26:05;;;;;;;11.32;4.88;;;;;;;18.69;44.33;100818.78;5047703;28;20057;-47
2022/03/30 05:28:32;;;;;;;9.63;4.40;;;;;;;18.66;44.48;100808.34;5047435;28;20438;-49
2022/03/30 05:30:59;;;;;;;7.18;4.15;;;;;;;18.63;44.33;100805.13;5044795;28;20128;-52
2022/03/30 05:33:25;;;;;;;8.43;4.65;;;;;;;18.60;44.53;100806.28;5045483;28;20064;-53
2022/03/30 05:35:52;;;;;;;6.78;4.03;;;;;;;18.58;44.44;100813.66;5045806;28;20316;-52
2022/03/30 05:38:19;;;;;;;6.72;4.57;;;;;;;18.55;44.24;100810.44;5046618;28;20051;-51
2022/03/30 05:40:45;;;;;;;7.97;4.68;;;;;;;18.53;44.51;100807.91;5046986;28;20041;-49
2022/03/30 05:43:12;;;;;;;8.55;4.50;;;;;;;18.53;44.54;100807.06;5041436;28;20049;-50
2022/03/30 05:45:38;;;;;;;9.27;4.65;;;;;;;18.50;44.67;100802.88;5046762;28;20442;-50
2022/03/30 05:48:05;;;;;;;9.98;4.97;;;;;;;18.49;44.51;100801.16;5043347;28;20053;-52
2022/03/30 05:50:32;;;;;;;9.80;5.18;;;;;;;18.47;44.47;100803.19;5048007;28;20064;-48
2022/03/30 05:52:59;;;;;;;7.88;4.00;;;;;;;18.47;44.29;100808.53;5051136;28;20083;-50
2022/03/30 05:55:26;;;;;;;7.38;4.35;;;;;;;18.46;44.62;100798.81;5045720;28;20084;-48
2022/03/30 05:57:52;;;;;;;7.85;4.60;;;;;;;18.45;44.59;100805.16;5045721;28;20071;-52
2022/03/30 06:00:19;;;;;;;11.88;4.30;;;;;;;18.44;44.73;100795.44;5047955;28;20581;-49
2022/03/30 06:02:45;;;;;;;7.70;4.10;;;;;;;18.43;44.82;100796.44;5049624;28;20128;-50
2022/03/30 06:05:12;;;;;;;7.38;4.20;;;;;;;18.42;44.20;100800.97;5043113;28;20061;-52
2022/03/30 06:07:39;;;;;;;8.80;3.88;;;;;;;18.41;44.20;100803.78;5046905;28;20041;-49
2022/03/30 06:10:06;;;;;;;7.43;3.88;;;;;;;18.41;44.18;100798.44;5045459;28;20049;-50
2022/03/30 06:12:33;;;;;;;7.68;3.67;;;;;;;18.41;44.44;100798.44;5046511;28;20136;-50
2022/03/30 06:15:00;;;;;;;7.05;3.55;;;;;;;18.41;43.95;100799.28;5045076;28;20045;-48
2022/03/30 06:17:32;;;;;;;9.15;3.92;;;;;;;18.41;44.09;100807.34;5045123;28;20055;-48
2022/03/30 06:19:59;;;;;;;8.05;3.90;;;;;;;18.42;44.27;100806.34;5047137;28;20049;-49
2022/03/30 06:22:29;;;;;;;7.93;4.70;;;;;;;18.42;44.29;100805.50;5048480;28;20045;-48
2022/03/30 06:24:58;;;;;;;7.47;4.20;;;;;;;18.45;44.07;100814.09;5039007;28;20036;-49
2022/03/30 06:27:24;;;;;;;7.57;3.97;;;;;;;18.46;44.28;100814.91;5040100;28;20144;-51
2022/03/30 06:29:52;;;;;;;8.50;4.15;;;;;;;18.47;43.82;100813.91;5043977;28;20048;-51
2022/03/30 06:32:19;;;;;;;7.80;4.07;;;;;;;18.48;44.08;100813.75;5044807;28;20128;-52
2022/03/30 06:34:45;;;;;;;7.95;3.88;;;;;;;18.49;43.79;100812.78;5038756;28;20324;-51
2022/03/30 06:37:12;;;;;;;6.75;3.95;;;;;;;18.51;44.04;100809.91;5042480;28;20133;-50
2022/03/30 06:39:38;;;;;;;7.07;3.50;;;;;;;18.52;44.01;100805.38;5046761;28;20033;-51
2022/03/30 06:42:09;;;;;;;7.30;3.80;;;;;;;18.52;44.05;100816.13;5045909;28;20328;-50
2022/03/30 06:44:37;;;;;;;6.63;3.97;;;;;;;18.53;43.86;100810.59;5045629;28;20077;-50
2022/03/30 06:47:04;;;;;;;5.57;3.80;;;;;;;18.54;43.64;100804.25;5039653;28;20433;-51
2022/03/30 06:49:31;;;;;;;6.97;3.95;;;;;;;18.55;43.91;100805.91;5043243;28;20132;-52
2022/03/30 06:51:57;;;;;;;7.85;4.30;;;;;;;18.57;43.83;100811.94;5045062;28;20140;-51
2022/03/30 06:54:24;;;;;;;8.90;4.65;;;;;;;18.58;43.47;100810.13;5042606;28;20052;-48
2022/03/30 06:56:51;;;;;;;7.53;4.22;;;;;;;18.60;43.39;100808.13;5042857;28;20357;-49
2022/03/30 06:59:18;;;;;;;6.93;3.72;;;;;;;18.64;43.80;100813.00;5048029;28;20496;-49
2022/03/30 07:01:45;;;;;;;7.53;4.00;;;;;;;18.64;43.91;100815.69;5042540;28;20139;-52
2022/03/30 07:04:12;;;;;;;6.65;4.10;;;;;;;18.67;43.50;100814.53;5041051;28;20045;-51
2022/03/30 07:10:14;;;;;;;7.93;5.00;;;;;;;18.68;43.65;100810.84;5042217;28;20041;-52
2022/03/30 07:12:10;;;;;;;8.35;4.05;;;;;;;18.71;43.46;100810.56;5039428;28;20132;-52
2022/03/30 07:14:37;;;;;;;8.75;4.75;;;;;;;18.72;43.51;100801.50;5043904;28;20081;-50
2022/03/30 07:17:03;;;;;;;6.65;4.32;;;;;;;18.72;43.75;100807.72;5045374;28;20159;-51
2022/03/30 07:19:30;;;;;;;10.25;4.28;;;;;;;18.73;43.06;100808.56;5044758;28;20045;-49
2022/03/30 07:21:57;;;;;;;9.25;4.78;;;;;;;18.73;43.39;100806.75;5048744;28;20131;-50
2022/03/30 07:24:23;;;;;;;7.95;4.28;;;;;;;18.73;42.86;100798.69;5041331;28;20418;-50
2022/03/30 07:26:50;;;;;;;10.15;4.57;;;;;;;18.73;43.26;100796.00;5040443;28;20048;-50
2022/03/30 07:29:17;;;;;;;9.18;4.85;;;;;;;18.73;43.20;100793.31;5047333;28;20084;-48
2022/03/30 07:31:43;;;;;;;7.25;4.35;;;;;;;18.72;43.18;100791.63;5044029;28;20092;-52
2022/03/30 07:34:13;;;;;;;7.40;4.20;;;;;;;18.72;43.29;100796.16;5046125;28;20059;-48
2022/03/30 07:36:39;;;;;;;9.13;4.30;;;;;;;18.73;43.07;100795.13;5045348;28;20037;-49
2022/03/30 07:39:06;;;;;;;7.55;4.38;;;;;;;18.73;43.42;100793.31;5043993;28;20053;-49
2022/03/30 07:41:32;;;;;;;9.45;4.13;;;;;;;18.75;42.84;100787.78;5042942;28;20041;-47
2022/03/30 07:43:59;;;;;;;7.38;4.53;;;;;;;18.77;43.21;100779.56;5040156;28;20045;-52
2022/03/30 07:46:26;;;;;;;6.15;3.67;;;;;;;18.77;43.26;100782.22;5041811;28;20045;-51
2022/03/30 07:48:53;;;;;;;9.45;4.53;;;;;;;18.79;43.57;100777.56;5042218;28;20041;-50
2022/03/30 07:51:19;;;;;;;7.90;3.83;;;;;;;18.81;43.19;100778.22;5045734;28;20051;-51
2022/03/30 07:53:46;;;;;;;9.60;4.57;;;;;;;18.83;43.55;100782.44;5046557;28;20041;-52
2022/03/30 07:56:12;;;;;;;8.63;3.70;;;;;;;18.86;42.86;100782.13;5040627;28;20140;-51
2022/03/30 07:58:39;;;;;;;8.52;4.15;;;;;;;18.89;43.77;100783.63;5045054;28;20124;-49
2022/03/30 08:01:05;;;;;;;7.43;3.70;;;;;;;18.90;43.22;100780.81;5045395;28;20079;-51
2022/03/30 08:03:32;;;;;;;8.23;3.90;;;;;;;18.93;43.20;100783.16;5043322;28;20044;-51
2022/03/30 08:06:00;;;;;;;6.78;3.45;;;;;;;18.95;43.41;100783.84;5042565;28;20709;-52
2022/03/30 08:08:27;;;;;;;7.75;4.00;;;;;;;18.97;43.42;100784.53;5039382;28;20136;-51
2022/03/30 08:10:54;;;;;;;7.43;4.18;;;;;;;18.99;43.21;100787.88;5041593;28;20045;-52
2022/03/30 08:13:21;;;;;;;5.85;3.90;;;;;;;19.02;43.11;100783.22;5047910;28;20052;-51
2022/03/30 08:15:47;;;;;;;7.25;3.97;;;;;;;19.02;43.12;100788.59;5043595;28;20038;-48
2022/03/30 08:18:14;;;;;;;9.52;4.40;;;;;;;19.04;43.02;100792.78;5043132;28;20049;-51
2022/03/30 08:23:27;;;;;;;9.90;3.95;;;;;;;19.08;43.10;100783.38;5046632;28;20049;-52
2022/03/30 08:25:54;;;;;;;8.27;4.45;;;;;;;19.10;43.29;100784.09;5046940;28;20045;-52
2022/03/30 08:28:20;;;;;;;7.90;3.67;;;;;;;19.13;43.32;100778.38;5044028;28;20428;-51
2022/03/30 08:30:48;;;;;;;5.70;3.90;;;;;;;19.16;43.40;100775.34;5043157;28;20123;-54
2022/03/30 08:33:16;;;;;;;8.73;4.05;;;;;;;19.20;43.13;100774.03;5045313;28;20052;-52
2022/03/30 08:35:43;;;;;;;7.63;3.55;;;;;;;19.23;43.63;100776.41;5046308;28;20076;-52
2022/03/30 08:38:09;;;;;;;8.88;4.43;;;;;;;19.28;43.74;100777.75;5047035;28;20160;-48
2022/03/30 08:40:36;;;;;;;8.90;4.28;;;;;;;19.30;43.33;100771.22;5047286;28;20365;-51
2022/03/30 08:43:04;;;;;;;7.07;3.83;;;;;;;19.33;43.86;100775.41;5049226;28;20076;-51
2022/03/30 08:45:31;;;;;;;8.23;4.10;;;;;;;19.35;43.46;100770.72;5046425;28;20052;-50
2022/03/30 08:47:57;;;;;;;8.43;4.22;;;;;;;19.38;43.83;100770.41;5045246;28;20133;-53
2022/03/30 08:50:24;;;;;;;9.65;3.50;;;;;;;19.39;43.41;100764.84;5043831;28;20120;-52
2022/03/30 08:52:55;;;;;;;5.43;3.33;;;;;;;19.42;43.49;100769.06;5049293;28;20041;-50
2022/03/30 08:55:22;;;;;;;5.82;3.72;;;;;;;19.43;43.18;100768.91;5046640;28;20041;-50
2022/03/30 08:57:49;;;;;;;7.25;3.97;;;;;;;19.45;43.49;100768.72;5048371;28;20369;-49
2022/03/30 09:00:18;;;;;;;6.78;3.40;;;;;;;19.47;43.79;100770.25;5049108;28;20051;-53
2022/03/30 09:02:59;;;;;;;8.15;4.03;;;;;;;19.48;43.80;100768.41;5047072;28;20133;-52
2022/03/30 09:05:28;;;;;;;6.88;3.58;;;;;;;19.49;43.34;100762.00;5048248;28;20052;-53
2022/03/30 09:08:11;;;;;;;5.72;3.08;;;;;;;19.51;43.75;100761.84;5048812;28;20157;-53
2022/03/30 09:10:39;;;;;;;7.00;3.43;;;;;;;19.54;43.90;100765.06;5048353;28;20652;-53
2022/03/30 09:13:07;;;;;;;8.90;3.63;;;;;;;19.55;43.04;100768.59;5049407;28;20522;-51
2022/03/30 09:15:36;;;;;;;5.40;3.30;;;;;;;19.56;43.61;100765.72;5048425;28;20053;-51
2022/03/30 09:18:06;;;;;;;6.72;3.40;;;;;;;19.58;43.20;100769.09;5048098;28;20367;-53
2022/03/30 09:20:36;;;;;;;5.38;3.30;;;;;;;19.59;43.87;100762.72;5049091;28;20061;-51
2022/03/30 09:23:04;;;;;;;8.10;3.35;;;;;;;19.59;43.07;100765.41;5044008;28;20168;-52
2022/03/30 09:25:49;;;;;;;6.28;3.30;;;;;;;19.60;43.65;100763.53;5045506;28;20048;-49
2022/03/30 09:28:18;;;;;;;6.95;3.40;;;;;;;19.61;42.97;100765.22;5043806;28;20109;-52
2022/03/30 09:30:45;;;;;;;5.68;3.17;;;;;;;19.62;42.93;100750.81;5046229;28;20129;-53
2022/03/30 09:33:16;;;;;;;5.95;3.40;;;;;;;19.63;43.33;100753.34;5045218;28;20041;-53
2022/03/30 09:35:43;;;;;;;5.45;3.10;;;;;;;19.66;43.43;100742.25;5047294;28;20077;-52
2022/03/30 09:38:18;;;;;;;6.60;3.25;;;;;;;19.71;43.08;100753.34;5047498;28;20060;-51
2022/03/30 09:40:52;;;;;;;4.68;2.70;;;;;;;19.76;43.13;100752.00;5047676;28;20139;-50
2022/03/30 09:43:24;;;;;;;7.60;2.97;;;;;;;19.78;43.13;100749.97;5046071;28;20132;-51
2022/03/30 09:46:12;;;;;;;5.22;3.03;;;;;;;19.79;42.92;100741.75;5037970;28;20676;-53
2022/03/30 09:48:39;;;;;;;5.07;2.65;;;;;;;19.81;43.37;100734.34;5041107;28;20045;-52
2022/03/30 09:51:07;;;;;;;4.38;3.13;;;;;;;19.83;43.08;100736.88;5047892;28;20056;-52
2022/03/30 09:53:34;;;;;;;6.97;3.10;;;;;;;19.83;43.33;100732.34;5046438;28;20041;-52
2022/03/30 09:56:03;;;;;;;4.43;2.70;;;;;;;19.83;43.49;100732.34;5046472;28;20427;-50
2022/03/30 09:58:32;;;;;;;3.97;2.30;;;;;;;19.84;42.95;100725.09;5047204;28;20127;-47
2022/03/30 10:01:22;;;;;;;5.97;3.25;;;;;;;19.83;42.78;100721.59;5043959;28;20068;-48
2022/03/30 10:04:02;;;;;;;5.95;3.67;;;;;;;19.85;42.78;100730.31;5037800;28;20392;-50
2022/03/30 10:06:32;;;;;;;6.05;2.95;;;;;;;19.88;42.71;100729.13;5042449;28;20037;-51
2022/03/30 10:09:03;;;;;;;7.60;3.00;;;;;;;19.91;42.67;100732.34;5039638;28;20048;-51
2022/03/30 10:11:30;;;;;;;4.70;2.47;;;;;;;19.92;42.49;100734.00;5041373;28;20380;-51
2022/03/30 10:13:59;;;;;;;4.30;2.67;;;;;;;19.93;43.05;100730.31;5046689;28;20382;-51
2022/03/30 10:16:43;;;;;;;4.93;3.10;;;;;;;19.94;42.82;100733.84;5044017;28;20136;-51
2022/03/30 10:19:11;;;;;;;6.70;2.67;;;;;;;19.94;42.51;100729.31;5047458;28;20143;-53
2022/03/30 10:21:44;;;;;;;4.80;2.65;;;;;;;19.96;42.75;100724.59;5045967;28;20124;-53
2022/03/30 10:24:30;;;;;;;;;;;;;;;19.99;42.48;100728.81;5046006;28;20041;-53
2022/03/30 10:27:26;;;;;;;4.22;2.75;;;;;;;20.03;42.16;100727.44;5046267;28;19923;-52
2022/03/30 10:29:55;;;;;;;4.72;2.85;;;;;;;20.05;42.91;100730.81;5047176;28;20051;-54
2022/03/30 10:32:23;;;;;;;5.75;2.70;;;;;;;20.06;42.61;100727.13;5046194;28;20064;-53
2022/03/30 10:35:13;;;;;;;6.90;2.83;;;;;;;20.08;42.29;100722.41;5044992;28;20475;-50
2022/03/30 10:37:42;;;;;;;8.60;3.22;;;;;;;20.10;42.33;100723.09;5041171;28;20333;-52
2022/03/30 10:40:20;;;;;;;17.23;4.20;;;;;;;20.11;42.29;100716.69;5045425;28;20057;-51
2022/03/30 10:42:46;;;;;;;21.63;5.30;;;;;;;20.14;42.57;100710.97;5044097;28;20076;-52
2022/03/30 10:45:28;;;;;;;22.23;6.70;;;;;;;20.15;42.46;100709.94;5047334;28;20099;-51
2022/03/30 10:48:30;;;;;;;27.50;5.72;;;;;;;20.15;42.38;100709.13;5045312;28;20061;-51
2022/03/30 10:51:14;;;;;;;17.15;5.28;;;;;;;20.16;42.42;100708.09;5035772;28;20048;-53
2022/03/30 10:53:49;;;;;;;22.33;6.15;;;;;;;20.18;42.34;100703.38;5044823;28;20045;-53
2022/03/30 10:56:19;;;;;;;14.43;4.97;;;;;;;20.18;42.69;100692.59;5045160;28;20048;-53
2022/03/30 10:59:00;;;;;;;22.42;5.53;;;;;;;20.18;42.28;100693.47;5046546;28;20140;-51
2022/03/30 11:01:29;;;;;;;19.90;5.15;;;;;;;20.21;42.24;100690.41;5045477;28;20067;-52
2022/03/30 11:04:00;;;;;;;21.42;5.40;;;;;;;20.24;42.29;100691.09;5042294;28;20144;-52
2022/03/30 11:06:33;;;;;;;16.60;5.18;;;;;;;20.26;42.23;100689.06;5046502;28;20067;-52
2022/03/30 11:09:11;;;;;;;16.50;5.75;;;;;;;20.29;42.75;100683.34;5046482;28;20200;-50
2022/03/30 11:11:43;;;;;;;14.15;4.70;;;;;;;20.31;42.15;100681.31;5042657;28;20419;-50
2022/03/30 11:14:32;;;;;;;10.25;4.15;;;;;;;20.32;41.90;100681.13;5042199;28;20049;-52
2022/03/30 11:17:04;;;;;;;21.02;4.95;;;;;;;20.35;42.38;100667.34;5041824;28;20332;-53
2022/03/30 11:19:55;;;;;;;15.88;4.38;;;;;;;20.36;42.01;100671.69;5047029;28;20044;-53
2022/03/30 11:22:21;;;;;;;14.27;4.82;;;;;;;20.39;42.44;100667.84;5032214;28;20504;-51
2022/03/30 11:25:10;;;;;;;15.00;4.18;;;;;;;20.38;41.90;100652.69;5042354;28;20146;-52
2022/03/30 11:27:38;;;;;;;12.98;4.05;;;;;;;20.41;41.75;100657.72;5038496;28;20088;-53
2022/03/30 11:30:17;;;;;;;10.50;4.00;;;;;;;20.41;42.04;100652.34;5041164;28;20074;-53
2022/03/30 11:32:55;;;;;;;13.27;4.63;;;;;;;20.40;41.84;100646.13;5043186;28;20061;-53
2022/03/30 11:35:25;;;;;;;11.18;3.85;;;;;;;20.42;41.86;100648.63;5045341;28;20072;-53
2022/03/30 11:38:05;;;;;;;13.32;3.47;;;;;;;20.41;42.20;100642.41;5045720;28;20482;-52
2022/03/30 11:40:38;;;;;;;14.32;3.67;;;;;;;20.42;42.09;100641.41;5045578;28;20608;-53